Sentaimaru — JD2823 — position and weather

sailwx.info

Track history (hours):
 
Tides and Currents Weather Stations Pressure Air Temp Water Temp Dewpoint Dewpoint Depression Visibility Wind Speed Wind Dir Waves Ship Positions

Sentaimaru

Last reported at 2018-Jun-19 01:36 UTC. Time now 2018-Jun-19 21:36 UTC.
Position N 33°55' E 135°01'.

Length 60 m; draft 4.2 m.

Type: Tanker. MMSI: 431000781.

Date/timePositionNaut miles runAvg speedWind from/ knotsBaromVisibWave heightAir tempDewpointWater temp
2018-Jun-19 01:36N 33°55' E 135°01'310.4
2018-Jun-19 01:18N 33°58' E 135°01'310.6
2018-Jun-19 01:00N 34°01' E 135°00'510.9
2018-Jun-19 00:30N 34°07' E 134°60'611.4
2018-Jun-19 00:00N 34°13' E 134°59'612.1
2018-Jun-18 23:30N 34°19' E 134°59'611.5
2018-Jun-18 23:00N 34°24' E 135°00'612.0
2018-Jun-18 22:30N 34°30' E 135°02'611.6
2018-Jun-18 22:00N 34°36' E 135°03'712.4
2018-Jun-18 21:28N 34°35' E 134°55'613.1
2018-Jun-18 21:00N 34°33' E 134°48'611.6
2018-Jun-18 20:30N 34°30' E 134°42'611.7
2018-Jun-18 20:00N 34°28' E 134°35'611.7
2018-Jun-18 19:28N 34°26' E 134°28'  
2018-Jun-16 01:05N 34°28' E 134°31'112.3
2018-Jun-16 01:00N 34°28' E 134°32'712.1
2018-Jun-16 00:26N 34°31' E 134°39'612.5
2018-Jun-16 00:00N 34°33' E 134°46'1113.0
2018-Jun-15 23:09N 34°37' E 134°58'212.0
2018-Jun-15 22:58N 34°37' E 135°01'510.9
2018-Jun-15 22:31N 34°35' E 135°06'612.0
2018-Jun-15 22:00N 34°29' E 135°04'611.1
2018-Jun-15 21:30N 34°24' E 135°02'510.6
2018-Jun-15 21:00N 34°19' E 134°60'510.0
2018-Jun-15 20:30N 34°14' E 134°59'510.4
2018-Jun-15 20:00N 34°08' E 134°60'511.0
2018-Jun-15 19:30N 34°03' E 135°00'611.0
2018-Jun-15 19:00N 33°57' E 135°01'510.5
2018-Jun-15 18:30N 33°52' E 135°01'244 5.9
2018-Jun-14 01:22N 35°09' E 139°43'513.6
2018-Jun-14 01:00N 35°13' E 139°46'712.9
2018-Jun-14 00:30N 35°19' E 139°43'611.6
2018-Jun-14 00:00N 35°24' E 139°43'713.0
2018-Jun-13 23:30N 35°28' E 139°49'  
Track history (hours):
 
Tides and Currents Weather Stations Pressure Air Temp Water Temp Dewpoint Dewpoint Depression Visibility Wind Speed Wind Dir Waves Ship Positions

Sentaimaru

Last reported at 2018-Jun-19 01:36 UTC. Time now 2018-Jun-19 21:36 UTC.
Position N 33°55' E 135°01'.

Length 60 m; draft 4.2 m.

Type: Tanker. MMSI: 431000781.

Date/timePositionNaut miles runAvg speedWind from/ knotsBaromVisibWave heightAir tempDewpointWater temp
2018-Jun-19 01:36N 33°55' E 135°01'310.4
2018-Jun-19 01:18N 33°58' E 135°01'310.6
2018-Jun-19 01:00N 34°01' E 135°00'510.9
2018-Jun-19 00:30N 34°07' E 134°60'611.4
2018-Jun-19 00:00N 34°13' E 134°59'612.1
2018-Jun-18 23:30N 34°19' E 134°59'611.5
2018-Jun-18 23:00N 34°24' E 135°00'612.0
2018-Jun-18 22:30N 34°30' E 135°02'611.6
2018-Jun-18 22:00N 34°36' E 135°03'712.4
2018-Jun-18 21:28N 34°35' E 134°55'613.1
2018-Jun-18 21:00N 34°33' E 134°48'611.6
2018-Jun-18 20:30N 34°30' E 134°42'611.7
2018-Jun-18 20:00N 34°28' E 134°35'611.7
2018-Jun-18 19:28N 34°26' E 134°28'  
2018-Jun-16 01:05N 34°28' E 134°31'112.3
2018-Jun-16 01:00N 34°28' E 134°32'712.1
2018-Jun-16 00:26N 34°31' E 134°39'612.5
2018-Jun-16 00:00N 34°33' E 134°46'1113.0
2018-Jun-15 23:09N 34°37' E 134°58'212.0
2018-Jun-15 22:58N 34°37' E 135°01'510.9
2018-Jun-15 22:31N 34°35' E 135°06'612.0
2018-Jun-15 22:00N 34°29' E 135°04'611.1
2018-Jun-15 21:30N 34°24' E 135°02'510.6
2018-Jun-15 21:00N 34°19' E 134°60'510.0
2018-Jun-15 20:30N 34°14' E 134°59'510.4
2018-Jun-15 20:00N 34°08' E 134°60'511.0
2018-Jun-15 19:30N 34°03' E 135°00'611.0
2018-Jun-15 19:00N 33°57' E 135°01'510.5
2018-Jun-15 18:30N 33°52' E 135°01'244 5.9
2018-Jun-14 01:22N 35°09' E 139°43'513.6
2018-Jun-14 01:00N 35°13' E 139°46'712.9
2018-Jun-14 00:30N 35°19' E 139°43'611.6
2018-Jun-14 00:00N 35°24' E 139°43'713.0
2018-Jun-13 23:30N 35°28' E 139°49'  

Dump ship's entire track history